APL Denmark — A8JX9 — position and weather

sailwx.info

Track history (hours):
 
Tides and Currents Weather Stations Pressure Air Temp Water Temp Dewpoint Dewpoint Depression Visibility Wind Speed Wind Dir Waves Ship Positions

APL Denmark

Last reported at 2017-Nov-18 13:58 UTC. Time now 2017-Nov-18 14:21 UTC.
Position N 01°16' E 103°50'.

Length 277 m; beam 40 m; draft 14 m.

Type: Cargo ship. MMSI: 636018240.

Date/timePositionNaut miles runAvg speedWind from/ knotsBaromVisibWave heightAir tempDewpointWater temp
2017-Nov-18 13:58N 01°16' E 103°50'0 0.0
2017-Nov-18 13:28N 01°16' E 103°50'0 0.0
2017-Nov-18 12:58N 01°16' E 103°50'0 0.0
2017-Nov-18 12:28N 01°16' E 103°50'0 0.0
2017-Nov-18 11:55N 01°16' E 103°50'0 0.0
2017-Nov-18 11:28N 01°16' E 103°50'0 0.0
2017-Nov-18 10:58N 01°16' E 103°50'0 0.0
2017-Nov-18 10:25N 01°16' E 103°50'0 0.1
2017-Nov-18 09:31N 01°16' E 103°50'2 3.5
2017-Nov-18 09:01N 01°15' E 103°52'3 5.1
2017-Nov-18 08:30N 01°13' E 103°54'1 1.9
2017-Nov-18 07:58N 01°12' E 103°53'1 3.0
2017-Nov-18 07:28N 01°12' E 103°52'2 5.2
2017-Nov-18 07:00N 01°11' E 103°50'4 7.2
2017-Nov-18 06:30N 01°09' E 103°47'5 9.0
2017-Nov-18 06:00N 01°05' E 103°44'4 8.3
2017-Nov-18 05:30N 01°03' E 103°40'4 7.4
2017-Nov-18 05:00N 01°04' E 103°37'5 8.5
2017-Nov-18 04:28N 01°06' E 103°33'5 8.8
2017-Nov-18 03:53N 01°09' E 103°28'510.4
2017-Nov-18 03:26N 01°11' E 103°24'610.5
2017-Nov-18 02:53N 01°15' E 103°20'  
Track history (hours):
 
Tides and Currents Weather Stations Pressure Air Temp Water Temp Dewpoint Dewpoint Depression Visibility Wind Speed Wind Dir Waves Ship Positions

APL Denmark

Last reported at 2017-Nov-18 13:58 UTC. Time now 2017-Nov-18 14:21 UTC.
Position N 01°16' E 103°50'.

Length 277 m; beam 40 m; draft 14 m.

Type: Cargo ship. MMSI: 636018240.

Date/timePositionNaut miles runAvg speedWind from/ knotsBaromVisibWave heightAir tempDewpointWater temp
2017-Nov-18 13:58N 01°16' E 103°50'0 0.0
2017-Nov-18 13:28N 01°16' E 103°50'0 0.0
2017-Nov-18 12:58N 01°16' E 103°50'0 0.0
2017-Nov-18 12:28N 01°16' E 103°50'0 0.0
2017-Nov-18 11:55N 01°16' E 103°50'0 0.0
2017-Nov-18 11:28N 01°16' E 103°50'0 0.0
2017-Nov-18 10:58N 01°16' E 103°50'0 0.0
2017-Nov-18 10:25N 01°16' E 103°50'0 0.1
2017-Nov-18 09:31N 01°16' E 103°50'2 3.5
2017-Nov-18 09:01N 01°15' E 103°52'3 5.1
2017-Nov-18 08:30N 01°13' E 103°54'1 1.9
2017-Nov-18 07:58N 01°12' E 103°53'1 3.0
2017-Nov-18 07:28N 01°12' E 103°52'2 5.2
2017-Nov-18 07:00N 01°11' E 103°50'4 7.2
2017-Nov-18 06:30N 01°09' E 103°47'5 9.0
2017-Nov-18 06:00N 01°05' E 103°44'4 8.3
2017-Nov-18 05:30N 01°03' E 103°40'4 7.4
2017-Nov-18 05:00N 01°04' E 103°37'5 8.5
2017-Nov-18 04:28N 01°06' E 103°33'5 8.8
2017-Nov-18 03:53N 01°09' E 103°28'510.4
2017-Nov-18 03:26N 01°11' E 103°24'610.5
2017-Nov-18 02:53N 01°15' E 103°20'  

Dump ship's entire track history